Time;durP1;ratioP1;P1;durP2;ratioP2;P2;SDS_P1;SDS_P2;PMS_P1;PMS_P2;Temp;Humidity;BMP_temperature;BMP_pressure;BME280_temperature;BME280_humidity;BME280_pressure;Samples;Min_cycle;Max_cycle;Signal;HPM_P1;HPM_P2
2022/10/28 00:03:00;;;;;;;135.50;126.97;;;;;;;;;;10151046;28;20048;-73
2022/10/28 00:07:57;;;;;;;138.52;130.63;;;;;;;;;;10157537;28;20052;-74
2022/10/28 00:12:53;;;;;;;138.80;130.80;;;;;;;;;;10150169;28;20069;-73
2022/10/28 00:17:49;;;;;;;138.27;130.35;;;;;;;;;;10157025;28;20054;-73
2022/10/28 00:22:46;;;;;;;142.02;133.73;;;;;;;;;;10177057;28;20050;-74
2022/10/28 00:27:42;;;;;;;136.02;128.20;;;;;;;;;;10166371;28;20047;-73
2022/10/28 00:32:39;;;;;;;133.10;125.10;;;;;;;;;;10155104;28;20054;-73
2022/10/28 00:37:35;;;;;;;131.55;123.95;;;;;;;;;;10160716;28;20049;-73
2022/10/28 00:42:31;;;;;;;139.27;130.98;;;;;;;;;;10162297;28;20522;-73
2022/10/28 00:47:27;;;;;;;135.82;127.90;;;;;;;;;;10166107;28;20050;-73
2022/10/28 00:52:26;;;;;;;136.32;128.10;;;;;;;;;;10160883;28;20042;-73
2022/10/28 00:57:26;;;;;;;131.32;123.18;;;;;;;;;;10161535;28;20664;-74
2022/10/28 01:02:22;;;;;;;135.75;127.68;;;;;;;;;;10150712;28;20039;-73
2022/10/28 01:07:19;;;;;;;133.32;125.38;;;;;;;;;;10154924;28;20093;-73
2022/10/28 01:12:34;;;;;;;134.07;126.10;;;;;;;;;;10158300;28;20050;-73
2022/10/28 01:17:30;;;;;;;135.68;127.47;;;;;;;;;;10159565;28;20493;-73
2022/10/28 01:22:26;;;;;;;133.60;125.68;;;;;;;;;;10156814;28;20058;-73
2022/10/28 01:27:31;;;;;;;134.23;125.75;;;;;;;;;;10150169;28;20670;-73
2022/10/28 01:32:29;;;;;;;133.10;124.65;;;;;;;;;;10157605;28;20054;-73
2022/10/28 01:37:33;;;;;;;132.90;124.07;;;;;;;;;;10155460;28;20593;-73
2022/10/28 01:42:36;;;;;;;129.93;122.13;;;;;;;;;;10167634;28;20042;-73
2022/10/28 01:47:49;;;;;;;134.95;126.65;;;;;;;;;;10150921;28;20049;-73
2022/10/28 01:52:47;;;;;;;130.88;122.97;;;;;;;;;;10156776;28;20042;-73
2022/10/28 01:57:44;;;;;;;131.52;123.78;;;;;;;;;;10161747;28;20046;-73
2022/10/28 02:02:41;;;;;;;133.93;125.70;;;;;;;;;;10158656;28;20054;-73
2022/10/28 02:07:37;;;;;;;130.52;122.53;;;;;;;;;;10157088;28;20043;-73
2022/10/28 02:12:35;;;;;;;129.98;121.55;;;;;;;;;;10165378;28;20052;-73
2022/10/28 02:17:50;;;;;;;132.80;124.18;;;;;;;;;;10158340;28;20045;-73
2022/10/28 02:22:58;;;;;;;132.20;124.13;;;;;;;;;;10157370;28;20042;-73
2022/10/28 02:27:58;;;;;;;134.27;126.07;;;;;;;;;;10154288;28;20052;-73
2022/10/28 02:32:58;;;;;;;131.63;123.47;;;;;;;;;;10155789;28;20050;-73
2022/10/28 02:37:55;;;;;;;132.85;124.32;;;;;;;;;;10163486;28;20045;-73
2022/10/28 02:42:54;;;;;;;133.57;125.38;;;;;;;;;;10146854;28;20042;-73
2022/10/28 02:47:53;;;;;;;129.70;121.80;;;;;;;;;;10165447;28;20049;-73
2022/10/28 02:52:53;;;;;;;129.65;121.45;;;;;;;;;;10179439;28;20508;-73
2022/10/28 02:57:50;;;;;;;123.45;115.95;;;;;;;;;;10161916;28;20493;-73
2022/10/28 03:02:47;;;;;;;125.72;117.68;;;;;;;;;;10162233;28;20409;-73
2022/10/28 03:07:43;;;;;;;126.75;118.82;;;;;;;;;;10168590;28;20168;-73
2022/10/28 03:12:39;;;;;;;134.68;126.38;;;;;;;;;;10175892;28;20050;-73
2022/10/28 03:17:35;;;;;;;126.85;118.88;;;;;;;;;;10165941;28;20049;-73
2022/10/28 03:22:32;;;;;;;127.38;118.93;;;;;;;;;;10163875;28;20412;-73
2022/10/28 03:27:28;;;;;;;120.97;113.18;;;;;;;;;;10168490;28;20046;-73
2022/10/28 03:32:24;;;;;;;127.70;119.60;;;;;;;;;;10160701;28;20042;-73
2022/10/28 03:37:20;;;;;;;122.70;114.55;;;;;;;;;;10166910;28;20038;-73
2022/10/28 03:42:16;;;;;;;124.05;116.25;;;;;;;;;;10168222;28;20041;-73
2022/10/28 03:47:13;;;;;;;125.57;117.40;;;;;;;;;;10152234;28;20043;-73
2022/10/28 03:52:09;;;;;;;121.60;113.85;;;;;;;;;;10160884;28;20042;-73
2022/10/28 03:57:05;;;;;;;120.70;112.53;;;;;;;;;;10161081;28;20210;-73
2022/10/28 04:02:02;;;;;;;120.65;112.57;;;;;;;;;;10148329;28;20504;-73
2022/10/28 04:06:58;;;;;;;125.57;117.50;;;;;;;;;;10166487;28;20057;-73
2022/10/28 04:11:54;;;;;;;122.38;114.20;;;;;;;;;;10151195;28;20408;-73
2022/10/28 04:16:51;;;;;;;115.70;107.90;;;;;;;;;;10160609;28;20045;-73
2022/10/28 04:21:47;;;;;;;120.72;112.68;;;;;;;;;;10155992;28;20045;-73
2022/10/28 04:26:43;;;;;;;120.75;111.57;;;;;;;;;;10140375;28;20058;-73
2022/10/28 04:31:39;;;;;;;117.97;110.28;;;;;;;;;;10137225;28;20452;-73
2022/10/28 04:36:36;;;;;;;113.70;105.85;;;;;;;;;;10128166;28;20129;-73
2022/10/28 04:41:32;;;;;;;114.32;106.78;;;;;;;;;;10135457;28;20070;-73
2022/10/28 04:46:28;;;;;;;114.97;106.82;;;;;;;;;;10140567;28;20059;-73
2022/10/28 04:51:24;;;;;;;113.05;104.97;;;;;;;;;;10155202;28;20052;-72
2022/10/28 04:56:21;;;;;;;112.75;105.07;;;;;;;;;;10158860;28;20049;-73
2022/10/28 05:01:17;;;;;;;117.10;109.07;;;;;;;;;;10168068;28;20034;-73
2022/10/28 05:06:13;;;;;;;108.20;100.70;;;;;;;;;;10159204;28;20539;-73
2022/10/28 05:11:09;;;;;;;110.95;103.03;;;;;;;;;;10169970;28;20041;-72
2022/10/28 05:16:06;;;;;;;112.43;104.63;;;;;;;;;;10163643;28;20440;-72
2022/10/28 05:21:02;;;;;;;118.85;110.65;;;;;;;;;;10164329;28;20173;-72
2022/10/28 05:25:59;;;;;;;115.60;107.10;;;;;;;;;;10134492;28;20045;-73
2022/10/28 05:30:55;;;;;;;114.93;106.53;;;;;;;;;;10163036;28;20100;-73
2022/10/28 05:35:51;;;;;;;111.22;103.47;;;;;;;;;;10153145;28;20057;-73
2022/10/28 05:40:48;;;;;;;112.90;104.50;;;;;;;;;;10163311;28;20048;-73
2022/10/28 05:45:50;;;;;;;112.55;104.68;;;;;;;;;;10157936;28;20062;-73
2022/10/28 05:50:46;;;;;;;112.35;104.32;;;;;;;;;;10163528;28;20045;-73
2022/10/28 05:55:43;;;;;;;116.30;108.00;;;;;;;;;;10149908;28;20045;-73
2022/10/28 06:00:43;;;;;;;116.07;107.90;;;;;;;;;;10174860;28;20121;-73
2022/10/28 06:05:40;;;;;;;115.75;107.40;;;;;;;;;;10162998;28;20561;-73
2022/10/28 06:10:37;;;;;;;111.57;103.38;;;;;;;;;;10165185;28;20572;-73
2022/10/28 06:15:33;;;;;;;117.43;108.82;;;;;;;;;;10165474;28;20043;-73
2022/10/28 06:20:30;;;;;;;114.28;106.28;;;;;;;;;;10159480;28;20061;-73
2022/10/28 06:25:26;;;;;;;113.35;105.22;;;;;;;;;;10167313;28;20057;-73
2022/10/28 06:30:23;;;;;;;116.78;108.50;;;;;;;;;;10165675;28;20862;-72
2022/10/28 06:35:20;;;;;;;112.80;104.57;;;;;;;;;;10176903;28;20042;-72
2022/10/28 06:40:16;;;;;;;115.40;106.68;;;;;;;;;;10166280;28;20037;-72
2022/10/28 06:45:12;;;;;;;115.88;107.85;;;;;;;;;;10172363;28;20049;-72
2022/10/28 06:50:09;;;;;;;120.20;111.60;;;;;;;;;;10152191;28;20142;-73
2022/10/28 06:55:05;;;;;;;112.00;103.80;;;;;;;;;;10164116;28;20042;-73
2022/10/28 07:00:01;;;;;;;114.53;106.15;;;;;;;;;;10151219;28;20066;-73
2022/10/28 07:04:58;;;;;;;111.90;103.55;;;;;;;;;;10163279;28;20047;-73
2022/10/28 07:09:54;;;;;;;115.63;107.50;;;;;;;;;;10162424;28;20397;-73
2022/10/28 07:14:50;;;;;;;117.43;108.25;;;;;;;;;;10172549;28;20117;-73
2022/10/28 07:19:46;;;;;;;117.80;108.90;;;;;;;;;;10167092;28;20050;-73
2022/10/28 07:24:43;;;;;;;114.28;105.63;;;;;;;;;;10147473;28;20050;-73
2022/10/28 07:29:39;;;;;;;116.57;108.00;;;;;;;;;;10161917;28;20125;-73
2022/10/28 07:34:35;;;;;;;116.25;107.70;;;;;;;;;;10165985;28;20443;-73
2022/10/28 07:39:32;;;;;;;115.10;106.35;;;;;;;;;;10160869;28;20053;-71
2022/10/28 07:44:28;;;;;;;113.63;105.07;;;;;;;;;;10150166;28;20483;-72
2022/10/28 07:49:24;;;;;;;116.05;107.32;;;;;;;;;;10169506;28;20061;-73
2022/10/28 07:54:21;;;;;;;115.65;106.43;;;;;;;;;;10162154;28;20042;-73
2022/10/28 07:59:19;;;;;;;114.78;106.38;;;;;;;;;;10131042;28;20035;-73
2022/10/28 08:04:22;;;;;;;119.53;110.50;;;;;;;;;;10124866;28;20449;-73
2022/10/28 08:09:18;;;;;;;121.53;112.40;;;;;;;;;;10164492;28;20056;-73
2022/10/28 08:14:14;;;;;;;122.20;113.20;;;;;;;;;;10168408;28;20504;-73
2022/10/28 08:19:10;;;;;;;125.28;115.82;;;;;;;;;;10149075;28;20443;-74
2022/10/28 08:24:07;;;;;;;124.78;115.35;;;;;;;;;;10142516;28;20497;-73
2022/10/28 08:29:03;;;;;;;125.35;116.43;;;;;;;;;;10159294;28;20500;-73
2022/10/28 08:33:59;;;;;;;119.30;110.65;;;;;;;;;;10157334;28;20142;-73
2022/10/28 08:38:58;;;;;;;123.50;114.22;;;;;;;;;;10167837;28;20048;-73
2022/10/28 08:44:12;;;;;;;130.82;121.80;;;;;;;;;;10171030;28;20491;-73
2022/10/28 08:49:11;;;;;;;130.55;121.40;;;;;;;;;;10171251;28;20492;-73
2022/10/28 08:54:13;;;;;;;129.63;120.70;;;;;;;;;;10171067;28;20481;-73
2022/10/28 08:59:12;;;;;;;135.30;125.88;;;;;;;;;;10159903;28;20046;-73
2022/10/28 09:04:17;;;;;;;137.52;128.65;;;;;;;;;;10154434;28;20056;-73
2022/10/28 09:09:17;;;;;;;144.50;135.23;;;;;;;;;;10168094;28;20042;-73
2022/10/28 09:14:13;;;;;;;140.65;131.98;;;;;;;;;;10166650;28;20046;-73
2022/10/28 09:19:13;;;;;;;134.57;126.10;;;;;;;;;;10169243;28;20037;-73
2022/10/28 09:24:19;;;;;;;123.45;115.65;;;;;;;;;;10158114;28;20182;-74
2022/10/28 09:29:25;;;;;;;106.35;99.72;;;;;;;;;;10146462;28;20042;-74
2022/10/28 09:34:30;;;;;;;104.38;97.75;;;;;;;;;;10160252;28;20041;-73
2022/10/28 09:39:28;;;;;;;84.85;79.35;;;;;;;;;;10144302;28;20049;-73
2022/10/28 09:44:45;;;;;;;74.05;69.15;;;;;;;;;;10151394;28;20522;-73
2022/10/28 09:49:42;;;;;;;72.05;67.53;;;;;;;;;;10151465;28;20050;-74
2022/10/28 09:54:41;;;;;;;64.65;60.80;;;;;;;;;;10147752;28;20526;-74
2022/10/28 09:59:37;;;;;;;56.17;52.25;;;;;;;;;;10126283;28;20038;-74
2022/10/28 10:04:34;;;;;;;52.13;48.25;;;;;;;;;;10156483;28;20044;-74
2022/10/28 10:09:32;;;;;;;55.00;51.70;;;;;;;;;;10161506;28;20052;-74
2022/10/28 10:14:30;;;;;;;57.00;53.20;;;;;;;;;;10138068;28;20631;-73
2022/10/28 10:19:26;;;;;;;42.97;40.20;;;;;;;;;;10155077;28;20034;-74
2022/10/28 10:24:30;;;;;;;38.03;35.45;;;;;;;;;;10177455;28;20684;-74
2022/10/28 10:29:26;;;;;;;39.78;37.08;;;;;;;;;;10151354;28;20423;-73
2022/10/28 10:34:23;;;;;;;42.55;39.75;;;;;;;;;;10148864;28;20038;-74
2022/10/28 10:39:30;;;;;;;44.42;41.15;;;;;;;;;;10147216;28;20052;-73
2022/10/28 10:44:31;;;;;;;47.70;43.95;;;;;;;;;;10138414;28;20053;-74
2022/10/28 10:49:28;;;;;;;41.50;38.58;;;;;;;;;;10145852;28;20053;-73
2022/10/28 10:54:25;;;;;;;34.55;31.77;;;;;;;;;;10136714;28;20042;-73
2022/10/28 10:59:26;;;;;;;24.98;22.95;;;;;;;;;;10159163;28;20050;-74
2022/10/28 11:04:24;;;;;;;18.45;16.60;;;;;;;;;;10151183;28;20397;-73
2022/10/28 11:09:32;;;;;;;20.50;18.80;;;;;;;;;;10174627;28;20045;-73
2022/10/28 11:14:31;;;;;;;18.83;17.15;;;;;;;;;;10172484;28;20065;-74
2022/10/28 11:19:28;;;;;;;17.15;13.80;;;;;;;;;;10164411;28;20061;-73
2022/10/28 11:24:27;;;;;;;22.38;14.35;;;;;;;;;;10158349;28;20047;-73
2022/10/28 11:29:24;;;;;;;20.63;14.70;;;;;;;;;;10150682;28;20050;-73
2022/10/28 11:34:39;;;;;;;18.10;13.32;;;;;;;;;;10154632;28;20042;-73
2022/10/28 11:40:00;;;;;;;14.82;13.32;;;;;;;;;;10160943;28;20048;-74
2022/10/28 11:45:01;;;;;;;15.95;13.82;;;;;;;;;;10153362;28;20046;-73
2022/10/28 11:50:03;;;;;;;14.55;13.00;;;;;;;;;;10159205;28;20503;-74
2022/10/28 11:55:26;;;;;;;14.02;12.65;;;;;;;;;;10156162;28;20058;-74
2022/10/28 12:00:36;;;;;;;15.05;13.52;;;;;;;;;;10153980;28;20075;-74
2022/10/28 12:05:37;;;;;;;14.65;13.18;;;;;;;;;;10155706;28;20047;-73
2022/10/28 12:10:38;;;;;;;16.97;13.53;;;;;;;;;;10175477;28;20049;-74
2022/10/28 12:15:43;;;;;;;19.90;13.40;;;;;;;;;;10167294;28;20065;-74
2022/10/28 12:21:15;;;;;;;18.50;12.95;;;;;;;;;;10161597;28;20077;-74
2022/10/28 12:26:14;;;;;;;14.35;12.95;;;;;;;;;;10128482;28;20045;-74
2022/10/28 12:31:19;;;;;;;16.95;12.77;;;;;;;;;;10152679;28;20050;-74
2022/10/28 12:36:19;;;;;;;17.52;13.05;;;;;;;;;;10143681;28;20765;-74
2022/10/28 12:41:23;;;;;;;16.10;12.32;;;;;;;;;;10140038;28;20053;-74
2022/10/28 12:46:32;;;;;;;13.70;12.43;;;;;;;;;;10155841;28;20054;-74
2022/10/28 12:51:36;;;;;;;13.77;12.32;;;;;;;;;;10162708;28;20058;-74
2022/10/28 12:56:35;;;;;;;18.83;13.02;;;;;;;;;;10147162;28;20070;-74
2022/10/28 13:01:32;;;;;;;15.63;11.90;;;;;;;;;;10153334;28;20047;-74
2022/10/28 13:06:37;;;;;;;13.88;11.77;;;;;;;;;;10151639;28;20125;-74
2022/10/28 13:12:00;;;;;;;17.42;11.82;;;;;;;;;;10157876;28;20046;-74
2022/10/28 13:16:59;;;;;;;17.90;11.10;;;;;;;;;;10143266;28;20137;-74
2022/10/28 13:22:17;;;;;;;15.13;11.75;;;;;;;;;;10158485;28;20484;-74
2022/10/28 13:27:14;;;;;;;16.38;11.88;;;;;;;;;;10143942;28;20038;-73
2022/10/28 13:32:25;;;;;;;15.45;12.73;;;;;;;;;;10168227;28;20415;-74
2022/10/28 13:37:22;;;;;;;14.25;11.82;;;;;;;;;;10160205;28;20053;-74
2022/10/28 13:42:22;;;;;;;17.15;11.80;;;;;;;;;;10144377;28;20413;-74
2022/10/28 13:47:24;;;;;;;15.32;11.90;;;;;;;;;;10143136;28;20042;-75
2022/10/28 13:52:20;;;;;;;;;;;;;;;;;;10131141;28;20050;-74
2022/10/28 13:57:22;;;;;;;16.02;12.40;;;;;;;;;;10152106;28;19921;-75
2022/10/28 14:02:38;;;;;;;14.80;12.93;;;;;;;;;;10150919;28;20038;-75
2022/10/28 14:07:37;;;;;;;17.83;14.48;;;;;;;;;;10153575;28;20061;-75
2022/10/28 14:12:39;;;;;;;15.88;14.18;;;;;;;;;;10164324;28;20052;-75
2022/10/28 14:17:35;;;;;;;;;;;;;;;;;;10170862;28;20042;-75
2022/10/28 14:22:33;;;;;;;18.33;14.65;;;;;;;;;;10161950;28;19930;-75
2022/10/28 14:27:40;;;;;;;17.55;15.27;;;;;;;;;;10140963;28;20045;-74
2022/10/28 14:32:43;;;;;;;16.77;15.00;;;;;;;;;;10151129;28;20057;-75
2022/10/28 14:38:07;;;;;;;16.98;15.38;;;;;;;;;;10159803;28;20055;-75
2022/10/28 14:43:06;;;;;;;24.17;15.48;;;;;;;;;;10160348;28;20038;-75
2022/10/28 14:48:18;;;;;;;16.75;15.00;;;;;;;;;;10160472;28;20415;-75
2022/10/28 14:53:21;;;;;;;19.70;17.05;;;;;;;;;;10143221;28;20126;-75
2022/10/28 14:58:26;;;;;;;18.52;16.83;;;;;;;;;;10169934;28;20042;-75
2022/10/28 15:03:22;;;;;;;18.95;17.17;;;;;;;;;;10159351;28;20054;-75
2022/10/28 15:08:19;;;;;;;20.52;18.45;;;;;;;;;;10168547;28;20381;-74
2022/10/28 15:13:16;;;;;;;21.33;19.48;;;;;;;;;;10137422;28;20511;-75
2022/10/28 15:18:20;;;;;;;20.67;18.80;;;;;;;;;;10140730;28;20796;-75
2022/10/28 15:23:21;;;;;;;22.73;20.30;;;;;;;;;;10155362;28;20053;-74
2022/10/28 15:28:17;;;;;;;22.58;20.40;;;;;;;;;;10160036;28;20069;-74
2022/10/28 15:33:18;;;;;;;26.13;23.63;;;;;;;;;;10166954;28;20061;-74
2022/10/28 15:38:20;;;;;;;26.38;24.17;;;;;;;;;;10152404;28;20525;-74
2022/10/28 15:43:20;;;;;;;29.55;27.00;;;;;;;;;;10153479;28;20034;-74
2022/10/28 15:48:25;;;;;;;32.03;29.63;;;;;;;;;;10167774;28;20109;-74
2022/10/28 15:53:31;;;;;;;32.58;30.25;;;;;;;;;;10162326;28;20412;-74
2022/10/28 15:58:33;;;;;;;33.88;30.95;;;;;;;;;;10170175;28;20165;-75
2022/10/28 16:03:38;;;;;;;40.42;36.92;;;;;;;;;;10153259;28;20042;-74
2022/10/28 16:08:34;;;;;;;37.50;34.80;;;;;;;;;;10137214;28;20046;-75
2022/10/28 16:13:33;;;;;;;41.17;37.78;;;;;;;;;;10123627;28;21557;-75
2022/10/28 16:18:31;;;;;;;46.88;43.47;;;;;;;;;;10158220;28;20060;-74
2022/10/28 16:23:32;;;;;;;49.22;45.80;;;;;;;;;;10134326;28;20042;-75
2022/10/28 16:28:30;;;;;;;50.80;46.97;;;;;;;;;;10152518;28;20047;-74
2022/10/28 16:33:27;;;;;;;57.83;54.10;;;;;;;;;;10147110;28;20054;-75
2022/10/28 16:38:24;;;;;;;55.42;51.88;;;;;;;;;;10187125;28;20550;-74
2022/10/28 16:43:22;;;;;;;61.80;57.33;;;;;;;;;;10145321;28;20044;-74
2022/10/28 16:48:19;;;;;;;64.32;60.05;;;;;;;;;;10139858;28;20050;-74
2022/10/28 16:53:15;;;;;;;66.25;60.80;;;;;;;;;;10143384;28;20397;-75
2022/10/28 16:58:12;;;;;;;67.45;62.40;;;;;;;;;;10141167;28;20046;-74
2022/10/28 17:03:13;;;;;;;73.40;68.40;;;;;;;;;;10144533;28;20080;-75
2022/10/28 17:08:10;;;;;;;74.97;69.75;;;;;;;;;;10142437;28;20050;-74
2022/10/28 17:13:15;;;;;;;84.57;79.38;;;;;;;;;;10137680;28;20052;-75
2022/10/28 17:18:13;;;;;;;86.00;80.57;;;;;;;;;;10149409;28;20124;-74
2022/10/28 17:23:10;;;;;;;85.72;80.43;;;;;;;;;;10138156;28;20035;-74
2022/10/28 17:28:06;;;;;;;84.95;79.43;;;;;;;;;;10146720;28;20137;-74
2022/10/28 17:33:02;;;;;;;82.75;77.75;;;;;;;;;;10150221;28;20091;-75
2022/10/28 17:38:00;;;;;;;80.60;75.18;;;;;;;;;;10141096;28;20653;-74
2022/10/28 17:42:57;;;;;;;67.55;62.33;;;;;;;;;;10146769;28;20042;-75
2022/10/28 17:47:53;;;;;;;41.72;38.42;;;;;;;;;;10134189;28;20287;-75
2022/10/28 17:52:51;;;;;;;29.25;26.63;;;;;;;;;;10148340;28;20053;-75
2022/10/28 17:57:48;;;;;;;23.05;20.80;;;;;;;;;;10138201;28;20120;-75
2022/10/28 18:02:44;;;;;;;22.10;20.13;;;;;;;;;;10130660;28;20129;-75
2022/10/28 18:07:40;;;;;;;21.35;19.30;;;;;;;;;;10139793;28;20078;-74
2022/10/28 18:12:37;;;;;;;22.25;19.75;;;;;;;;;;10137044;28;20042;-75
2022/10/28 18:17:33;;;;;;;23.10;20.77;;;;;;;;;;10152937;28;20109;-75
2022/10/28 18:22:29;;;;;;;21.77;19.80;;;;;;;;;;10130415;28;20047;-74
2022/10/28 18:27:27;;;;;;;22.00;19.65;;;;;;;;;;10182566;28;20527;-75
2022/10/28 18:32:24;;;;;;;22.02;19.67;;;;;;;;;;10142528;28;20489;-75
2022/10/28 18:37:20;;;;;;;21.98;19.77;;;;;;;;;;10164291;28;20664;-75
2022/10/28 18:42:18;;;;;;;24.63;20.00;;;;;;;;;;10163126;28;20043;-74
2022/10/28 18:47:17;;;;;;;23.67;21.17;;;;;;;;;;10138206;28;20046;-75
2022/10/28 18:52:13;;;;;;;24.08;20.50;;;;;;;;;;10159345;28;20108;-75
2022/10/28 18:57:09;;;;;;;23.55;21.05;;;;;;;;;;10151332;28;20042;-75
2022/10/28 19:02:07;;;;;;;26.75;20.40;;;;;;;;;;10147655;28;20495;-75
2022/10/28 19:07:03;;;;;;;26.88;24.40;;;;;;;;;;10149495;28;20550;-75
2022/10/28 19:11:59;;;;;;;27.25;24.90;;;;;;;;;;10160847;28;20037;-75
2022/10/28 19:16:56;;;;;;;27.25;24.15;;;;;;;;;;10136740;28;20415;-75
2022/10/28 19:21:54;;;;;;;27.02;24.52;;;;;;;;;;10138785;28;20068;-70
2022/10/28 19:26:50;;;;;;;30.02;27.42;;;;;;;;;;10132353;28;20129;-70
2022/10/28 19:31:47;;;;;;;30.30;27.52;;;;;;;;;;10138135;28;20073;-71
2022/10/28 19:36:43;;;;;;;30.77;27.70;;;;;;;;;;10144829;28;20050;-70
2022/10/28 19:41:39;;;;;;;30.58;27.75;;;;;;;;;;10159405;28;20039;-70
2022/10/28 19:46:35;;;;;;;33.72;30.85;;;;;;;;;;10145723;28;20049;-70
2022/10/28 19:51:33;;;;;;;35.17;32.20;;;;;;;;;;10128769;28;20046;-69
2022/10/28 19:56:30;;;;;;;34.90;32.00;;;;;;;;;;10144154;28;20046;-70
2022/10/28 20:01:27;;;;;;;37.15;34.20;;;;;;;;;;10140557;28;20049;-69
2022/10/28 20:06:25;;;;;;;37.22;34.30;;;;;;;;;;10166481;28;20046;-70
2022/10/28 20:11:22;;;;;;;37.03;33.85;;;;;;;;;;10176053;28;20056;-70
2022/10/28 20:16:22;;;;;;;42.83;39.30;;;;;;;;;;10137927;28;20058;-69
2022/10/28 20:21:19;;;;;;;40.08;36.50;;;;;;;;;;10146092;28;20050;-69
2022/10/28 20:26:16;;;;;;;40.47;36.70;;;;;;;;;;10150777;28;20043;-70
2022/10/28 20:31:13;;;;;;;41.85;38.40;;;;;;;;;;10163679;28;20077;-70
2022/10/28 20:36:25;;;;;;;44.85;41.30;;;;;;;;;;10154837;28;20492;-69
2022/10/28 20:41:22;;;;;;;44.40;40.50;;;;;;;;;;10142908;28;20145;-69
2022/10/28 20:46:18;;;;;;;47.22;43.72;;;;;;;;;;10141505;28;20518;-70
2022/10/28 20:51:15;;;;;;;48.70;44.70;;;;;;;;;;10138945;28;20520;-70
2022/10/28 20:56:16;;;;;;;43.65;40.28;;;;;;;;;;10156952;28;20054;-69
2022/10/28 21:01:12;;;;;;;38.50;35.65;;;;;;;;;;10151485;28;20077;-70
2022/10/28 21:06:09;;;;;;;45.33;41.55;;;;;;;;;;10137177;28;20463;-69
2022/10/28 21:11:06;;;;;;;45.78;42.20;;;;;;;;;;10137042;28;20042;-69
2022/10/28 21:16:03;;;;;;;47.30;43.55;;;;;;;;;;10138944;28;20050;-70
2022/10/28 21:20:59;;;;;;;42.88;39.33;;;;;;;;;;10135294;28;20042;-69
2022/10/28 21:25:56;;;;;;;48.28;44.28;;;;;;;;;;10136351;28;20437;-70
2022/10/28 21:31:04;;;;;;;50.72;46.88;;;;;;;;;;10137961;28;20054;-69
2022/10/28 21:36:02;;;;;;;56.65;52.28;;;;;;;;;;10142337;28;20050;-69
2022/10/28 21:40:59;;;;;;;60.58;56.20;;;;;;;;;;10163661;28;20488;-69
2022/10/28 21:45:55;;;;;;;64.35;59.70;;;;;;;;;;10158432;28;20061;-69
2022/10/28 21:50:52;;;;;;;68.65;64.28;;;;;;;;;;10169062;28;20277;-69
2022/10/28 21:55:48;;;;;;;67.82;62.58;;;;;;;;;;10169465;28;20425;-69
2022/10/28 22:00:46;;;;;;;67.32;62.55;;;;;;;;;;10151845;28;20042;-69
2022/10/28 22:05:48;;;;;;;66.13;61.50;;;;;;;;;;10169134;28;20064;-69
2022/10/28 22:10:45;;;;;;;67.20;62.35;;;;;;;;;;10173354;28;20046;-69
2022/10/28 22:15:41;;;;;;;68.68;64.22;;;;;;;;;;10161354;28;20061;-69
2022/10/28 22:20:37;;;;;;;69.18;64.32;;;;;;;;;;10168609;28;20039;-69
2022/10/28 22:25:34;;;;;;;72.65;67.88;;;;;;;;;;10150602;28;20039;-69
2022/10/28 22:30:30;;;;;;;76.32;70.97;;;;;;;;;;10151741;28;20106;-69
2022/10/28 22:35:26;;;;;;;85.65;79.70;;;;;;;;;;10152109;28;20686;-70
2022/10/28 22:40:22;;;;;;;82.93;77.35;;;;;;;;;;10162366;28;20053;-70
2022/10/28 22:45:19;;;;;;;87.03;81.53;;;;;;;;;;10152243;28;20077;-70
2022/10/28 22:50:15;;;;;;;89.95;84.32;;;;;;;;;;10163720;28;20048;-70
2022/10/28 22:55:11;;;;;;;90.68;84.72;;;;;;;;;;10154226;28;20061;-70
2022/10/28 23:00:08;;;;;;;95.75;89.00;;;;;;;;;;10171894;28;20056;-70
2022/10/28 23:05:04;;;;;;;106.60;99.82;;;;;;;;;;10163871;28;20126;-69
2022/10/28 23:10:00;;;;;;;108.40;101.88;;;;;;;;;;10164828;28;20046;-70
2022/10/28 23:14:57;;;;;;;115.25;107.82;;;;;;;;;;10171632;28;20045;-70
2022/10/28 23:19:53;;;;;;;114.40;107.47;;;;;;;;;;10166299;28;20041;-70
2022/10/28 23:24:50;;;;;;;106.55;100.18;;;;;;;;;;10161222;28;20550;-69
2022/10/28 23:29:46;;;;;;;107.30;100.28;;;;;;;;;;10145645;28;20054;-69
2022/10/28 23:34:42;;;;;;;101.75;95.80;;;;;;;;;;10160317;28;20055;-69
2022/10/28 23:39:38;;;;;;;100.15;94.00;;;;;;;;;;10156256;28;20038;-70
2022/10/28 23:44:34;;;;;;;94.72;88.75;;;;;;;;;;10174544;28;20052;-69
2022/10/28 23:49:31;;;;;;;99.40;93.38;;;;;;;;;;10164973;28;20053;-70
2022/10/28 23:54:27;;;;;;;99.85;93.53;;;;;;;;;;10173355;28;20038;-70
2022/10/28 23:59:23;;;;;;;93.00;87.13;;;;;;;;;;10175301;28;20046;-69
